Time;durP1;ratioP1;P1;durP2;ratioP2;P2;SDS_P1;SDS_P2;PMS_P1;PMS_P2;Temp;Humidity;BMP_temperature;BMP_pressure;BME280_temperature;BME280_humidity;BME280_pressure;Samples;Min_cycle;Max_cycle;Signal;HPM_P1;HPM_P2
2021/12/09 00:00:34;;;;;;;68.63;21.57;;;;;;;5.19;100.00;96397.13;5123250;28;20715;-67
2021/12/09 00:03:05;;;;;;;80.00;20.23;;;;;;;5.10;100.00;96397.91;5120238;28;20600;-66
2021/12/09 00:05:33;;;;;;;55.93;19.67;;;;;;;5.11;100.00;96418.00;5121105;28;20609;-68
2021/12/09 00:08:00;;;;;;;96.37;21.20;;;;;;;5.45;100.00;96441.03;5123515;28;20604;-67
2021/12/09 00:10:26;;;;;;;92.33;24.37;;;;;;;5.74;100.00;96445.78;5123060;28;20631;-67
2021/12/09 00:12:54;;;;;;;67.60;21.27;;;;;;;5.61;100.00;96447.13;5120041;28;20648;-67
2021/12/09 00:15:20;;;;;;;86.43;21.13;;;;;;;5.60;100.00;96455.34;5119877;28;20597;-66
2021/12/09 00:17:47;;;;;;;119.83;22.73;;;;;;;5.76;100.00;96456.88;5123029;28;20608;-66
2021/12/09 00:20:15;;;;;;;80.63;18.93;;;;;;;5.75;100.00;96464.06;5131787;28;20622;-67
2021/12/09 00:22:42;;;;;;;105.47;20.80;;;;;;;5.58;100.00;96465.38;5120822;28;20639;-67
2021/12/09 00:25:10;;;;;;;106.73;20.50;;;;;;;5.54;100.00;96449.22;5120069;28;20635;-67
2021/12/09 00:27:36;;;;;;;71.47;19.07;;;;;;;5.78;100.00;96433.59;5103178;28;20619;-67
2021/12/09 00:30:05;;;;;;;58.60;20.30;;;;;;;5.94;100.00;96440.47;5123231;28;20604;-66
2021/12/09 00:32:32;;;;;;;96.87;20.30;;;;;;;5.94;100.00;96437.84;5103769;28;20610;-67
2021/12/09 00:34:58;;;;;;;51.07;19.20;;;;;;;5.90;100.00;96437.56;5119376;28;20629;-66
2021/12/09 00:37:33;;;;;;;71.20;18.70;;;;;;;6.07;100.00;96437.25;5119597;28;20666;-66
2021/12/09 00:39:59;;;;;;;95.93;19.50;;;;;;;5.93;100.00;96436.22;5122979;28;20679;-67
2021/12/09 00:42:27;;;;;;;64.93;20.80;;;;;;;5.87;100.00;96443.41;5104623;28;20592;-67
2021/12/09 00:44:56;;;;;;;64.83;18.90;;;;;;;5.85;100.00;96447.34;5119404;28;20601;-66
2021/12/09 00:47:23;;;;;;;92.53;22.40;;;;;;;5.87;100.00;96443.41;5119221;28;20619;-65
2021/12/09 00:49:55;;;;;;;90.67;19.93;;;;;;;5.82;100.00;96461.91;5122787;28;20604;-66
2021/12/09 00:52:24;;;;;;;74.17;21.50;;;;;;;5.96;100.00;96462.19;5122751;28;20639;-65
2021/12/09 00:54:54;;;;;;;68.10;20.07;;;;;;;6.04;100.00;96466.94;5119075;28;20640;-68
2021/12/09 00:57:21;;;;;;;61.83;19.77;;;;;;;6.12;100.00;96470.91;5119081;28;20678;-67
2021/12/09 00:59:49;;;;;;;58.63;18.60;;;;;;;6.13;100.00;96483.88;5122265;28;20592;-68
2021/12/09 01:02:16;;;;;;;106.83;23.17;;;;;;;6.12;100.00;96474.34;5122134;28;20596;-67
2021/12/09 01:04:44;;;;;;;85.37;20.63;;;;;;;5.92;100.00;96477.81;5120011;28;20601;-68
2021/12/09 01:07:11;;;;;;;61.37;20.30;;;;;;;5.45;100.00;96479.94;5119123;28;20598;-67
2021/12/09 01:09:38;;;;;;;107.97;19.67;;;;;;;5.19;100.00;96481.00;5120556;28;20605;-66
2021/12/09 01:12:08;;;;;;;56.43;19.10;;;;;;;4.98;100.00;96496.06;5122504;28;20593;-67
2021/12/09 01:14:37;;;;;;;72.00;20.53;;;;;;;4.88;100.00;96490.75;5120655;28;20640;-66
2021/12/09 01:17:04;;;;;;;71.03;20.30;;;;;;;4.67;100.00;96491.75;5118761;28;20625;-66
2021/12/09 01:19:31;;;;;;;92.37;23.27;;;;;;;4.57;100.00;96481.13;5127873;28;20596;-66
2021/12/09 01:21:58;;;;;;;62.73;17.97;;;;;;;4.50;100.00;96485.84;5122481;28;20593;-67
2021/12/09 01:24:25;;;;;;;71.83;18.07;;;;;;;4.45;100.00;96496.41;5121880;28;20641;-66
2021/12/09 01:26:51;;;;;;;127.43;21.43;;;;;;;4.82;100.00;96512.94;5118586;28;20661;-66
2021/12/09 01:29:28;;;;;;;83.63;22.03;;;;;;;4.76;100.00;96495.47;5118564;28;20626;-66
2021/12/09 01:32:00;;;;;;;70.13;19.73;;;;;;;4.56;100.00;96503.31;5118504;28;20631;-66
2021/12/09 01:34:27;;;;;;;75.67;20.33;;;;;;;4.64;100.00;96521.34;5118467;28;20629;-66
2021/12/09 01:36:53;;;;;;;100.70;20.03;;;;;;;4.43;100.00;96511.72;5121993;28;20600;-67
2021/12/09 01:39:22;;;;;;;107.57;22.53;;;;;;;4.49;100.00;96505.44;5121895;28;20605;-67
2021/12/09 01:41:49;;;;;;;87.93;21.23;;;;;;;4.69;100.00;96492.28;5118343;28;20604;-65
2021/12/09 01:44:16;;;;;;;56.83;18.03;;;;;;;4.63;100.00;96517.09;5118480;28;20616;-66
2021/12/09 01:46:44;;;;;;;77.53;19.63;;;;;;;4.57;100.00;96516.28;5120894;28;20639;-67
2021/12/09 01:49:11;;;;;;;62.23;19.73;;;;;;;4.67;100.00;96507.59;5121820;28;20615;-66
2021/12/09 01:51:37;;;;;;;90.27;22.10;;;;;;;4.92;100.00;96514.81;5121604;28;21123;-67
2021/12/09 01:54:04;;;;;;;63.03;19.20;;;;;;;4.93;100.00;96522.47;5121759;28;21213;-66
2021/12/09 01:56:31;;;;;;;90.57;21.60;;;;;;;4.89;100.00;96521.41;5120567;28;20609;-66
2021/12/09 01:59:00;;;;;;;91.97;17.97;;;;;;;4.91;100.00;96527.25;5118228;28;20628;-66
2021/12/09 02:01:27;;;;;;;116.47;21.93;;;;;;;4.76;100.00;96516.63;5118309;28;20613;-66
2021/12/09 02:03:56;;;;;;;66.53;21.07;;;;;;;4.43;100.00;96506.44;5121800;28;20596;-66
2021/12/09 02:06:23;;;;;;;58.30;20.90;;;;;;;4.08;100.00;96505.22;5121472;28;20658;-67
2021/12/09 02:08:51;;;;;;;81.17;20.20;;;;;;;4.46;100.00;96513.84;5109729;28;20642;-66
2021/12/09 02:11:18;;;;;;;78.43;19.70;;;;;;;4.66;100.00;96506.81;5109781;28;20623;-66
2021/12/09 02:13:46;;;;;;;77.90;19.73;;;;;;;4.85;100.00;96504.50;5108757;28;20648;-66
2021/12/09 02:16:14;;;;;;;64.23;18.30;;;;;;;5.02;100.00;96493.66;5109620;28;20609;-67
2021/12/09 02:18:40;;;;;;;94.00;19.57;;;;;;;4.95;100.00;96509.00;5111645;28;20680;-67
2021/12/09 02:21:12;;;;;;;74.80;18.60;;;;;;;5.01;100.00;96507.97;5123961;28;20609;-67
2021/12/09 02:23:42;;;;;;;88.13;19.27;;;;;;;4.97;100.00;96506.91;5119818;28;20717;-66
2021/12/09 02:26:08;;;;;;;76.60;20.07;;;;;;;5.09;100.00;96510.09;5121445;28;20608;-66
2021/12/09 02:28:35;;;;;;;85.27;19.30;;;;;;;4.86;100.00;96509.50;5119730;28;20614;-66
2021/12/09 02:31:02;;;;;;;97.70;21.63;;;;;;;4.67;100.00;96502.31;5118173;28;21256;-66
2021/12/09 02:33:29;;;;;;;89.77;21.17;;;;;;;4.57;100.00;96508.38;5118415;28;20697;-66
2021/12/09 02:35:56;;;;;;;62.63;19.53;;;;;;;4.86;100.00;96503.41;5121179;28;20653;-66
2021/12/09 02:38:24;;;;;;;78.20;20.37;;;;;;;4.77;100.00;96518.19;5121198;28;20608;-67
2021/12/09 02:40:51;;;;;;;81.33;20.87;;;;;;;4.83;100.00;96514.50;5109478;28;20593;-67
2021/12/09 02:43:25;;;;;;;62.00;19.97;;;;;;;4.44;100.00;96508.03;5109327;28;20639;-66
2021/12/09 02:45:52;;;;;;;106.87;21.90;;;;;;;4.58;100.00;96519.75;5109401;28;20619;-66
2021/12/09 02:48:20;;;;;;;53.63;20.17;;;;;;;4.73;100.00;96517.16;5109342;28;20648;-67
2021/12/09 02:50:47;;;;;;;82.47;20.17;;;;;;;4.57;100.00;96528.72;5126116;28;20609;-66
2021/12/09 02:53:14;;;;;;;73.00;20.80;;;;;;;4.49;100.00;96521.28;5117869;28;20948;-66
2021/12/09 02:55:44;;;;;;;104.20;22.90;;;;;;;4.73;100.00;96522.44;5119854;28;20589;-67
2021/12/09 02:58:11;;;;;;;67.67;21.73;;;;;;;5.06;100.00;96532.56;5121293;28;20630;-66
2021/12/09 03:00:55;;;;;;;121.13;23.40;;;;;;;5.33;100.00;96533.16;5119272;28;20668;-66
2021/12/09 03:03:22;;;;;;;61.13;20.10;;;;;;;5.39;100.00;96526.00;5117588;28;20597;-66
2021/12/09 03:05:49;;;;;;;52.07;19.37;;;;;;;5.52;100.00;96517.56;5099620;28;20604;-67
2021/12/09 03:08:22;;;;;;;77.30;19.77;;;;;;;5.68;100.00;96510.41;5117709;28;20631;-66
2021/12/09 03:10:50;;;;;;;74.87;21.93;;;;;;;5.68;100.00;96502.47;5120794;28;20593;-67
2021/12/09 03:13:17;;;;;;;89.20;21.43;;;;;;;5.22;100.00;96505.09;5121074;28;20695;-67
2021/12/09 03:15:44;;;;;;;66.17;20.57;;;;;;;4.86;100.00;96506.84;5118254;28;20625;-68
2021/12/09 03:18:10;;;;;;;69.50;22.23;;;;;;;4.89;100.00;96508.19;5117547;28;20601;-67
2021/12/09 03:20:37;;;;;;;97.70;21.97;;;;;;;4.74;100.00;96505.50;5125776;28;21379;-66
2021/12/09 03:23:04;;;;;;;85.07;21.60;;;;;;;4.71;100.00;96498.09;5117548;28;20605;-66
2021/12/09 03:25:30;;;;;;;50.53;18.70;;;;;;;4.51;100.00;96503.31;5120319;28;20620;-66
2021/12/09 03:27:59;;;;;;;81.40;22.03;;;;;;;4.52;100.00;96520.78;5124664;28;20637;-66
2021/12/09 03:30:25;;;;;;;81.17;20.70;;;;;;;4.59;100.00;96529.25;5124471;28;20606;-66
2021/12/09 03:32:52;;;;;;;75.30;18.87;;;;;;;4.71;100.00;96529.81;5120988;28;20634;-66
2021/12/09 03:35:19;;;;;;;92.83;20.93;;;;;;;4.47;100.00;96526.81;5120721;28;20668;-66
2021/12/09 03:37:46;;;;;;;94.20;21.20;;;;;;;4.28;100.00;96525.66;5123779;28;20708;-66
2021/12/09 03:40:14;;;;;;;81.37;19.93;;;;;;;4.11;100.00;96520.56;5124477;28;20596;-66
2021/12/09 03:42:43;;;;;;;75.27;21.20;;;;;;;4.45;100.00;96522.84;5121965;28;20659;-66
2021/12/09 03:45:12;;;;;;;86.83;18.70;;;;;;;4.34;100.00;96522.00;5120697;28;20674;-66
2021/12/09 03:47:39;;;;;;;102.20;21.17;;;;;;;4.41;100.00;96529.69;5122490;28;20610;-65
2021/12/09 03:50:09;;;;;;;61.27;21.67;;;;;;;4.50;100.00;96526.31;5132570;28;20600;-66
2021/12/09 03:52:36;;;;;;;79.20;22.03;;;;;;;4.59;100.00;96540.63;5122535;28;20619;-66
2021/12/09 03:55:05;;;;;;;89.73;20.57;;;;;;;4.75;100.00;96552.06;5120561;28;20644;-66
2021/12/09 03:57:32;;;;;;;101.67;23.03;;;;;;;4.97;100.00;96550.00;5121417;28;20616;-67
2021/12/09 03:59:59;;;;;;;123.13;22.73;;;;;;;5.22;100.00;96555.38;5124035;28;20600;-66
2021/12/09 04:02:27;;;;;;;108.87;21.70;;;;;;;5.34;100.00;96563.88;5123490;28;20622;-67
2021/12/09 04:04:54;;;;;;;106.20;21.23;;;;;;;5.10;100.00;96567.25;5120297;28;20608;-66
2021/12/09 04:07:20;;;;;;;88.67;20.53;;;;;;;5.09;100.00;96561.16;5120124;28;20605;-66
2021/12/09 04:09:47;;;;;;;106.87;21.87;;;;;;;4.90;100.00;96555.53;5123232;28;20630;-66
2021/12/09 04:12:14;;;;;;;110.27;22.10;;;;;;;4.95;100.00;96562.72;5123740;28;20649;-66
2021/12/09 04:14:41;;;;;;;73.10;19.13;;;;;;;5.13;100.00;96561.44;5121178;28;20635;-67
2021/12/09 04:17:08;;;;;;;69.00;20.27;;;;;;;5.30;100.00;96570.72;5119954;28;20624;-66
2021/12/09 04:19:36;;;;;;;77.90;22.77;;;;;;;5.29;100.00;96568.38;5128162;28;20665;-65
2021/12/09 04:22:04;;;;;;;66.83;21.93;;;;;;;5.45;100.00;96572.59;5120045;28;20668;-66
2021/12/09 04:24:30;;;;;;;89.10;22.10;;;;;;;5.51;100.00;96576.06;5120500;28;20616;-66
2021/12/09 04:26:57;;;;;;;72.57;22.20;;;;;;;5.60;100.00;96574.50;5123267;28;20626;-66
2021/12/09 04:29:23;;;;;;;114.77;22.63;;;;;;;5.62;100.00;96577.66;5122925;28;20678;-66
2021/12/09 04:31:51;;;;;;;71.80;21.83;;;;;;;5.51;100.00;96582.16;5111135;28;21351;-65
2021/12/09 04:34:19;;;;;;;68.07;21.13;;;;;;;5.19;100.00;96576.28;5111023;28;20694;-66
2021/12/09 04:36:47;;;;;;;85.43;20.97;;;;;;;5.10;100.00;96570.69;5110594;28;20613;-66
2021/12/09 04:39:14;;;;;;;86.50;22.60;;;;;;;4.74;100.00;96568.97;5111163;28;20601;-66
2021/12/09 04:41:41;;;;;;;100.17;22.33;;;;;;;4.68;100.00;96562.84;5110943;28;20600;-66
2021/12/09 04:44:09;;;;;;;105.97;22.80;;;;;;;4.62;100.00;96552.53;5110958;28;20601;-67
2021/12/09 04:46:36;;;;;;;77.77;22.53;;;;;;;4.68;100.00;96562.84;5110753;28;20635;-66
2021/12/09 04:49:03;;;;;;;86.33;21.67;;;;;;;4.69;100.00;96561.03;5116161;28;20604;-66
2021/12/09 04:51:30;;;;;;;91.90;24.50;;;;;;;4.75;100.00;96567.91;5122023;28;20605;-66
2021/12/09 04:53:58;;;;;;;65.33;22.70;;;;;;;4.54;100.00;96560.94;5119435;28;20619;-66
2021/12/09 04:56:25;;;;;;;58.73;22.47;;;;;;;4.26;100.00;96565.56;5119142;28;20617;-66
2021/12/09 04:58:52;;;;;;;99.57;22.90;;;;;;;4.40;100.00;96584.41;5110854;28;20597;-66
2021/12/09 05:01:20;;;;;;;74.00;21.43;;;;;;;4.78;100.00;96584.06;5110731;28;20627;-67
2021/12/09 05:03:48;;;;;;;98.30;21.30;;;;;;;4.70;100.00;96591.72;5110696;28;20621;-66
2021/12/09 05:06:15;;;;;;;84.03;21.50;;;;;;;4.88;100.00;96588.59;5110635;28;20601;-67
2021/12/09 05:08:46;;;;;;;83.63;22.40;;;;;;;4.73;100.00;96588.53;5110472;28;20682;-66
2021/12/09 05:11:28;;;;;;;87.77;24.20;;;;;;;4.56;100.00;96587.91;5110416;28;20610;-66
2021/12/09 05:13:56;;;;;;;50.43;18.67;;;;;;;4.57;100.00;96589.50;5118919;28;20605;-67
2021/12/09 05:16:23;;;;;;;76.10;22.07;;;;;;;4.38;100.00;96577.78;5118779;28;20615;-66
2021/12/09 05:18:57;;;;;;;81.83;22.37;;;;;;;4.20;100.00;96579.81;5122516;28;20593;-67
2021/12/09 05:21:24;;;;;;;74.53;21.40;;;;;;;4.24;100.00;96567.66;5122222;28;20650;-66
2021/12/09 05:23:51;;;;;;;76.10;21.57;;;;;;;4.23;100.00;96571.38;5110301;28;20605;-66
2021/12/09 05:26:23;;;;;;;64.30;20.03;;;;;;;4.05;100.00;96569.13;5110287;28;20635;-66
2021/12/09 05:28:55;;;;;;;62.83;20.53;;;;;;;4.10;100.00;96561.22;5110081;28;20613;-66
2021/12/09 05:34:06;;;;;;;114.80;24.17;;;;;;;3.78;100.00;96548.06;5109946;28;20615;-66
2021/12/09 05:36:32;;;;;;;119.83;25.90;;;;;;;4.14;100.00;96572.88;5109776;28;20614;-66
2021/12/09 05:38:59;;;;;;;111.13;21.43;;;;;;;4.25;100.00;96584.31;5114832;28;20600;-66
2021/12/09 05:41:27;;;;;;;88.13;21.30;;;;;;;4.61;100.00;96594.03;5121631;28;20600;-66
2021/12/09 05:43:54;;;;;;;81.37;21.30;;;;;;;4.73;100.00;96607.84;5118287;28;20594;-67
2021/12/09 05:46:22;;;;;;;84.60;21.30;;;;;;;4.29;100.00;96607.34;5118238;28;20675;-66
2021/12/09 05:48:50;;;;;;;60.57;20.03;;;;;;;4.30;100.00;96611.56;5121532;28;20612;-67
2021/12/09 05:51:17;;;;;;;82.70;21.50;;;;;;;4.57;100.00;96623.88;5121728;28;20657;-66
2021/12/09 05:53:43;;;;;;;75.73;22.40;;;;;;;4.85;100.00;96632.25;5119194;28;21328;-67
2021/12/09 05:56:10;;;;;;;61.30;20.40;;;;;;;4.75;100.00;96618.97;5118377;28;21200;-67
2021/12/09 05:58:38;;;;;;;64.17;18.97;;;;;;;4.72;100.00;96629.25;5119856;28;20608;-66
2021/12/09 06:01:05;;;;;;;76.30;23.57;;;;;;;4.58;100.00;96636.06;5121684;28;20589;-66
2021/12/09 06:03:31;;;;;;;53.43;18.80;;;;;;;4.83;100.00;96644.91;5120595;28;20600;-66
2021/12/09 06:05:58;;;;;;;81.00;22.60;;;;;;;4.89;100.00;96656.31;5118135;28;20597;-66
2021/12/09 06:08:25;;;;;;;91.60;23.23;;;;;;;4.90;100.00;96660.56;5117756;28;20624;-67
2021/12/09 06:10:51;;;;;;;68.90;21.07;;;;;;;4.75;100.00;96673.69;5118218;28;20613;-66
2021/12/09 06:13:18;;;;;;;76.53;20.80;;;;;;;4.85;100.00;96679.06;5118087;28;20601;-68
2021/12/09 06:15:46;;;;;;;90.33;21.70;;;;;;;4.70;100.00;96687.69;5120718;28;20750;-67
2021/12/09 06:18:13;;;;;;;104.40;23.80;;;;;;;4.60;100.00;96679.69;5121375;28;20588;-67
2021/12/09 06:20:40;;;;;;;87.47;21.87;;;;;;;4.25;100.00;96690.00;5121303;28;20601;-67
2021/12/09 06:23:06;;;;;;;90.07;22.30;;;;;;;4.29;100.00;96691.09;5121496;28;20603;-67
2021/12/09 06:25:33;;;;;;;116.43;23.67;;;;;;;4.66;100.00;96691.09;5119994;28;20604;-66
2021/12/09 06:28:00;;;;;;;61.50;19.67;;;;;;;4.95;100.00;96695.00;5117782;28;20605;-67
2021/12/09 06:30:27;;;;;;;85.60;21.20;;;;;;;5.09;100.00;96700.59;5117855;28;20601;-67
2021/12/09 06:32:55;;;;;;;97.80;21.23;;;;;;;5.27;100.00;96702.78;5121299;28;20593;-66
2021/12/09 06:35:22;;;;;;;70.23;18.87;;;;;;;5.34;100.00;96693.56;5120910;28;20701;-66
2021/12/09 06:37:48;;;;;;;88.63;21.93;;;;;;;5.39;100.00;96701.53;5118180;28;20593;-67
2021/12/09 06:40:18;;;;;;;157.13;24.97;;;;;;;5.42;100.00;96701.00;5117656;28;20605;-67
2021/12/09 06:42:46;;;;;;;81.90;21.20;;;;;;;5.43;100.00;96707.91;5120228;28;20597;-67
2021/12/09 06:45:15;;;;;;;76.77;20.90;;;;;;;5.42;100.00;96705.50;5120910;28;20592;-66
2021/12/09 06:47:42;;;;;;;106.87;22.60;;;;;;;5.47;100.00;96702.88;5118652;28;20593;-66
2021/12/09 06:50:13;;;;;;;76.63;20.90;;;;;;;5.47;100.00;96704.72;5117786;28;20601;-66
2021/12/09 06:52:40;;;;;;;91.07;22.77;;;;;;;5.45;100.00;96703.13;5119462;28;20616;-66
2021/12/09 06:55:10;;;;;;;110.77;22.30;;;;;;;5.47;100.00;96704.72;5120993;28;20644;-67
2021/12/09 06:57:38;;;;;;;110.10;22.80;;;;;;;5.47;100.00;96707.38;5119094;28;20604;-67
2021/12/09 07:00:07;;;;;;;70.40;22.97;;;;;;;5.42;100.00;96695.72;5119308;28;20684;-67
2021/12/09 07:02:33;;;;;;;81.60;22.03;;;;;;;5.41;100.00;96688.84;5122411;28;20601;-66
2021/12/09 07:05:00;;;;;;;99.43;24.77;;;;;;;5.38;100.00;96685.91;5124946;28;20608;-67
2021/12/09 07:07:28;;;;;;;84.07;22.93;;;;;;;5.41;100.00;96682.75;5124340;28;20600;-67
2021/12/09 07:09:55;;;;;;;112.33;23.40;;;;;;;5.44;100.00;96672.44;5121311;28;20601;-66
2021/12/09 07:12:21;;;;;;;63.57;21.83;;;;;;;5.45;100.00;96666.06;5121217;28;20602;-68
2021/12/09 07:14:48;;;;;;;112.37;21.77;;;;;;;5.41;100.00;96672.16;5124107;28;20635;-66
2021/12/09 07:17:16;;;;;;;99.90;24.63;;;;;;;5.43;100.00;96660.25;5124675;28;20600;-69
2021/12/09 07:19:43;;;;;;;70.77;21.53;;;;;;;5.45;100.00;96652.03;5122268;28;20631;-66
2021/12/09 07:22:10;;;;;;;103.77;21.63;;;;;;;5.45;100.00;96652.81;5121130;28;20601;-66
2021/12/09 07:24:38;;;;;;;92.20;22.90;;;;;;;5.49;100.00;96652.31;5122303;28;20605;-66
2021/12/09 07:27:05;;;;;;;129.23;24.83;;;;;;;5.51;100.00;96650.97;5124435;28;20595;-66
2021/12/09 07:29:32;;;;;;;124.30;23.37;;;;;;;5.38;100.00;96662.84;5122994;28;20634;-67
2021/12/09 07:31:58;;;;;;;126.07;23.63;;;;;;;5.45;100.00;96663.41;5120833;28;20605;-67
2021/12/09 07:34:25;;;;;;;142.30;26.67;;;;;;;5.50;100.00;96669.78;5120477;28;20681;-67
2021/12/09 07:36:52;;;;;;;92.17;21.33;;;;;;;5.51;100.00;96677.47;5120844;28;20661;-67
2021/12/09 07:39:19;;;;;;;81.03;20.67;;;;;;;5.52;100.00;96694.16;5120829;28;20658;-67
2021/12/09 07:41:47;;;;;;;103.10;23.20;;;;;;;5.49;100.00;96687.53;5123418;28;20600;-66
2021/12/09 07:44:17;;;;;;;102.17;23.83;;;;;;;5.41;100.00;96683.56;5124237;28;20592;-66
2021/12/09 07:46:45;;;;;;;102.60;21.73;;;;;;;5.48;100.00;96666.63;5121513;28;20600;-67
2021/12/09 07:49:12;;;;;;;73.47;21.17;;;;;;;5.58;100.00;96670.06;5127208;28;20613;-67
2021/12/09 07:51:39;;;;;;;124.43;22.10;;;;;;;5.54;100.00;96670.88;5122192;28;20621;-67
2021/12/09 07:54:05;;;;;;;95.27;23.20;;;;;;;5.53;100.00;96680.66;5120654;28;20593;-67
2021/12/09 07:56:32;;;;;;;66.83;23.07;;;;;;;5.42;100.00;96700.19;5121237;28;20665;-66
2021/12/09 07:59:01;;;;;;;153.07;23.53;;;;;;;5.41;100.00;96696.78;5124049;28;21179;-66
2021/12/09 08:01:29;;;;;;;74.17;21.17;;;;;;;5.39;100.00;96703.38;5123422;28;20665;-66
2021/12/09 08:03:55;;;;;;;87.70;19.00;;;;;;;5.45;100.00;96703.13;5120444;28;20641;-67
2021/12/09 08:06:22;;;;;;;69.37;20.20;;;;;;;5.48;100.00;96703.69;5120028;28;20686;-67
2021/12/09 08:08:49;;;;;;;75.50;21.17;;;;;;;5.39;100.00;96698.88;5123274;28;20604;-67
2021/12/09 08:11:15;;;;;;;79.23;20.63;;;;;;;5.39;100.00;96696.22;5122396;28;20609;-67
2021/12/09 08:13:42;;;;;;;73.37;20.40;;;;;;;5.49;100.00;96692.03;5121248;28;20728;-67
2021/12/09 08:16:10;;;;;;;95.10;22.07;;;;;;;5.51;100.00;96690.69;5120119;28;20667;-66
2021/12/09 08:18:53;;;;;;;98.10;24.37;;;;;;;5.45;100.00;96711.06;5121567;28;20666;-66
2021/12/09 08:21:20;;;;;;;118.97;23.80;;;;;;;5.43;100.00;96715.03;5123400;28;20608;-67
2021/12/09 08:23:47;;;;;;;68.83;20.53;;;;;;;5.52;100.00;96712.69;5120516;28;20605;-67
2021/12/09 08:26:14;;;;;;;89.63;22.40;;;;;;;5.61;100.00;96711.94;5120112;28;21145;-66
2021/12/09 08:28:40;;;;;;;86.27;20.60;;;;;;;5.52;100.00;96713.50;5121978;28;20597;-66
2021/12/09 08:31:07;;;;;;;112.93;20.23;;;;;;;5.57;100.00;96718.78;5123421;28;20600;-67
2021/12/09 08:33:35;;;;;;;79.97;21.83;;;;;;;5.58;100.00;96717.75;5122069;28;20605;-66
2021/12/09 08:36:02;;;;;;;49.37;17.93;;;;;;;5.55;100.00;96726.22;5119546;28;20718;-67
2021/12/09 08:38:28;;;;;;;86.20;19.43;;;;;;;5.55;100.00;96712.16;5119953;28;20658;-66
2021/12/09 08:40:56;;;;;;;90.73;20.20;;;;;;;5.62;100.00;96715.38;5123119;28;20609;-66
2021/12/09 08:43:23;;;;;;;84.60;20.87;;;;;;;5.57;100.00;96708.19;5123094;28;20641;-67
2021/12/09 08:45:53;;;;;;;75.27;19.47;;;;;;;5.57;100.00;96713.50;5101703;28;20581;-66
2021/12/09 08:48:21;;;;;;;63.10;21.90;;;;;;;5.54;100.00;96711.38;5119439;28;20680;-67
2021/12/09 08:50:49;;;;;;;98.00;21.67;;;;;;;5.57;100.00;96718.03;5122673;28;20654;-66
2021/12/09 08:53:18;;;;;;;70.67;19.23;;;;;;;5.63;100.00;96716.97;5122977;28;20630;-66
2021/12/09 08:55:45;;;;;;;96.50;22.40;;;;;;;5.57;100.00;96734.69;5120210;28;20636;-66
2021/12/09 08:58:14;;;;;;;71.60;18.83;;;;;;;5.49;100.00;96735.19;5119563;28;21207;-67
2021/12/09 09:00:42;;;;;;;63.47;17.10;;;;;;;5.58;100.00;96740.78;5121315;28;20590;-67
2021/12/09 09:03:09;;;;;;;96.77;19.47;;;;;;;5.58;100.00;96746.06;5122740;28;20616;-67
2021/12/09 09:05:37;;;;;;;83.07;17.43;;;;;;;5.58;100.00;96749.53;5121191;28;20667;-66
2021/12/09 09:08:07;;;;;;;52.83;15.77;;;;;;;5.57;100.00;96739.19;5119175;28;20598;-66
2021/12/09 09:10:37;;;;;;;71.17;17.00;;;;;;;5.56;100.00;96748.19;5120180;28;20613;-66
2021/12/09 09:13:04;;;;;;;97.80;19.50;;;;;;;5.54;100.00;96751.09;5122732;28;20608;-66
2021/12/09 09:15:32;;;;;;;78.50;17.60;;;;;;;5.55;100.00;96760.63;5121547;28;20640;-66
2021/12/09 09:17:59;;;;;;;85.63;21.20;;;;;;;5.50;100.00;96770.41;5119072;28;20693;-66
2021/12/09 09:20:28;;;;;;;79.07;19.77;;;;;;;5.44;100.00;96762.47;5118963;28;20609;-67
2021/12/09 09:22:55;;;;;;;66.93;19.90;;;;;;;5.40;100.00;96745.47;5122160;28;20622;-67
2021/12/09 09:25:29;;;;;;;67.67;19.10;;;;;;;5.43;100.00;96750.25;5122332;28;20604;-66
2021/12/09 09:27:57;;;;;;;110.60;22.00;;;;;;;5.48;100.00;96743.41;5118835;28;20703;-66
2021/12/09 09:30:26;;;;;;;69.00;19.03;;;;;;;5.51;100.00;96751.59;5118651;28;20602;-67
2021/12/09 09:32:53;;;;;;;89.87;19.37;;;;;;;5.54;100.00;96747.66;5110058;28;20601;-67
2021/12/09 09:35:21;;;;;;;77.03;19.37;;;;;;;5.55;100.00;96746.59;5109659;28;20633;-67
2021/12/09 09:37:48;;;;;;;85.37;19.63;;;;;;;5.59;100.00;96767.00;5110058;28;20627;-67
2021/12/09 09:40:23;;;;;;;101.47;20.80;;;;;;;5.59;100.00;96780.25;5110196;28;20673;-66
2021/12/09 09:43:01;;;;;;;89.00;19.33;;;;;;;5.64;100.00;96776.81;5109819;28;20616;-66
2021/12/09 09:45:29;;;;;;;123.57;20.03;;;;;;;5.62;100.00;96769.16;5109584;28;20601;-67
2021/12/09 09:47:56;;;;;;;74.90;14.77;;;;;;;5.66;100.00;96777.38;5110099;28;20628;-67
2021/12/09 09:50:24;;;;;;;68.47;17.43;;;;;;;5.63;100.00;96780.53;5118356;28;20635;-66
2021/12/09 09:52:50;;;;;;;104.87;17.07;;;;;;;5.53;100.00;96781.28;5122088;28;20622;-67
2021/12/09 09:55:21;;;;;;;39.77;13.60;;;;;;;5.53;100.00;96785.78;5121996;28;20604;-66
2021/12/09 09:57:51;;;;;;;68.80;13.33;;;;;;;5.49;100.00;96774.09;5118629;28;20639;-67
2021/12/09 10:00:20;;;;;;;59.43;14.90;;;;;;;5.53;100.00;96765.41;5118414;28;20609;-67
2021/12/09 10:02:53;;;;;;;55.50;13.97;;;;;;;5.60;100.00;96765.16;5121307;28;20646;-66
2021/12/09 10:05:25;;;;;;;59.40;13.27;;;;;;;5.60;100.00;96770.47;5121905;28;20615;-66
2021/12/09 10:07:53;;;;;;;50.87;14.00;;;;;;;5.63;100.00;96767.28;5118322;28;20617;-66
2021/12/09 10:10:19;;;;;;;35.63;12.60;;;;;;;5.49;100.00;96758.22;5118187;28;20597;-65
2021/12/09 10:12:59;;;;;;;42.27;15.03;;;;;;;5.27;100.00;96763.66;5121050;28;20608;-68
2021/12/09 10:15:34;;;;;;;82.33;16.13;;;;;;;5.33;100.00;96754.69;5103362;28;20641;-67
2021/12/09 10:18:01;;;;;;;60.90;12.40;;;;;;;5.42;100.00;96761.09;5118160;28;20597;-67
2021/12/09 10:20:43;;;;;;;56.73;14.50;;;;;;;5.53;100.00;96759.31;5118321;28;20605;-67
2021/12/09 10:23:30;;;;;;;57.67;13.33;;;;;;;5.55;100.00;96757.97;5121642;28;20608;-67
2021/12/09 10:26:19;;;;;;;60.00;11.90;;;;;;;5.55;100.00;96757.19;5118060;28;20627;-66
2021/12/09 10:28:50;;;;;;;100.43;13.57;;;;;;;5.54;100.00;96766.97;5120767;28;20636;-67
2021/12/09 10:31:19;;;;;;;83.87;12.10;;;;;;;5.57;100.00;96763.03;5121647;28;20723;-67
2021/12/09 10:34:05;;;;;;;46.77;10.40;;;;;;;5.60;100.00;96759.88;5118646;28;20622;-67
2021/12/09 10:36:51;;;;;;;48.67;11.67;;;;;;;5.63;100.00;96756.69;5122609;28;20682;-67
2021/12/09 10:39:22;;;;;;;57.13;12.70;;;;;;;5.64;100.00;96760.91;5125511;28;20600;-66
2021/12/09 10:41:49;;;;;;;57.10;10.87;;;;;;;5.67;100.00;96758.56;5122132;28;20626;-66
2021/12/09 10:44:29;;;;;;;42.20;10.73;;;;;;;5.68;100.00;96748.75;5122065;28;20610;-66
2021/12/09 10:47:06;;;;;;;62.80;13.10;;;;;;;5.72;100.00;96760.44;5121818;28;20604;-66
2021/12/09 10:49:39;;;;;;;62.30;12.10;;;;;;;5.69;100.00;96751.16;5129946;28;20604;-67
2021/12/09 10:52:23;;;;;;;67.60;14.03;;;;;;;5.62;100.00;96757.75;5121771;28;20615;-66
2021/12/09 10:54:51;;;;;;;60.83;19.70;;;;;;;5.62;100.00;96757.75;5125060;28;20607;-66
2021/12/09 10:57:29;;;;;;;60.93;11.27;;;;;;;5.67;100.00;96760.41;5125083;28;20659;-66
2021/12/09 10:59:58;;;;;;;65.50;12.10;;;;;;;5.68;100.00;96772.59;5121665;28;20626;-67
2021/12/09 11:02:25;;;;;;;32.73;9.30;;;;;;;5.74;100.00;96774.22;5121515;28;20635;-66
2021/12/09 11:05:06;;;;;;;47.07;9.40;;;;;;;5.72;100.00;96765.75;5113206;28;21499;-67
2021/12/09 11:07:33;;;;;;;43.97;11.40;;;;;;;5.75;100.00;96760.72;5112794;28;20605;-66
2021/12/09 11:10:22;;;;;;;49.60;9.43;;;;;;;5.79;100.00;96742.44;5112795;28;20612;-66
2021/12/09 11:12:55;;;;;;;85.27;13.37;;;;;;;5.78;100.00;96748.81;5112762;28;20704;-65
2021/12/09 11:15:43;;;;;;;48.93;8.90;;;;;;;5.77;100.00;96755.16;5112880;28;20624;-67
2021/12/09 11:18:26;;;;;;;57.93;8.93;;;;;;;5.79;100.00;96759.13;5118811;28;20643;-67
2021/12/09 11:20:53;;;;;;;69.77;11.43;;;;;;;5.78;100.00;96762.84;5124561;28;21122;-67
2021/12/09 11:23:36;;;;;;;48.43;9.63;;;;;;;5.78;100.00;96765.50;5124572;28;20596;-66
2021/12/09 11:26:32;;;;;;;41.53;9.67;;;;;;;5.81;100.00;96762.34;5121105;28;20609;-66